2°C Temp
0°C Dewpoint
87% Humidity
Temperature
5 KM/H
3 MPH
3 KTS
330°
North North
West

Wind Speed
Overcast
Conditions
Pressure 1023.02 (hPa) - 30.21 (in)
Visibility 8.7 (mi) - 14.0 (km)

Current Conditions
CYZE
Location 50(km)
Metar :CYZE 190800Z AUTO 33003KT 9SM OVC065 02/M00 A3021 RMK SLP240
Mon 19th October 04:00 am

Airport
  Metar Aviation API Data Provided by https://www.checkwx.com/ PHP scripts by weather34.com ©2020